Flight Track Log - Related Links

Times and Time Zones

All times are in EDT time to prevent confusion due to time zone crossing. See the N300CT flight status page for this flight to view local times or setup timezone preferences in your user account.

Time Position Orientation Groundspeed Altitude Reporting Facility
EDT Latitude Longitude Course Direction KTS MPH feet Rate Location/Type
Sat 06:25:25 PM 41.4853 -72.6450 211° Southwest 167 192 4,500  Level Boston Center
Sat 06:27:10 PM 41.4167 -72.7000 211° Southwest 169 194 4,500  Level New York TRACON
Sat 06:28:10 PM 41.3833 -72.7500 228° Southwest 165 190 4,500  Level New York TRACON
Sat 06:29:10 PM 41.3500 -72.7833 217° Southwest 165 190 4,500  Level New York TRACON
Sat 06:30:10 PM 41.3167 -72.8167 217° Southwest 168 193 4,500  Level New York TRACON
Sat 06:31:04 PM 41.2833 -72.8500 217° Southwest 171 197 4,500  Level New York TRACON
Sat 06:32:04 PM 41.2333 -72.8833 207° Southwest 168 193 4,500 -100 Level New York TRACON
Sat 06:33:04 PM 41.2000 -72.9167 217° Southwest 172 198 4,300 -250 Descending New York TRACON
Sat 06:34:04 PM 41.1500 -72.9500 207° Southwest 174 200 4,000 -300 Descending New York TRACON
Sat 06:35:04 PM 41.1333 -73.0000 246° West 175 201 3,700 -350 Descending New York TRACON
Sat 06:36:04 PM 41.1000 -73.0500 229° Southwest 172 198 3,300 -300 Descending New York TRACON
Sat 06:37:04 PM 41.0667 -73.1000 229° Southwest 172 198 3,100 -200 Descending New York TRACON
Sat 06:39:00 PM 41.0115 -73.1415 210° Southwest  Level FlightAware Approximate
Sat 06:46:00 PM 40.8211 -73.3124 217° Southwest  Level FlightAware Approximate
Sat 06:47:00 PM 40.7949 -73.3385 217° Southwest  Level FlightAware Approximate
Sat 06:48:00 PM 40.7653 -73.3514 217° Southwest  Level FlightAware Approximate
Sat 06:49:00 PM 40.7392 -73.3775 217° Southwest  Level FlightAware Approximate
Sat 06:50:00 PM 40.7167 -73.4000 217° Southwest  Level FlightAware Approximate
Sat 06:51:00 PM 40.7288 -73.4134 217° Southwest  Level Estimated
Sat 06:52:00 PM 40.7288 -73.4134 217° Southwest  Level Estimated
Sat 06:53:00 PM 40.7288 -73.4134 217° Southwest  Level Estimated
Sat 06:54:00 PM 40.7288 -73.4134 217° Southwest  Level Estimated
Sat 06:55:00 PM 40.7288 -73.4134 217° Southwest  Level Estimated
Sat 06:56:00 PM 40.7288 -73.4134 217° Southwest  Level Estimated
Sat 06:57:00 PM 40.7288 -73.4134 217° Southwest  Level Estimated
Sat 06:58:00 PM 40.7288 -73.4134 217° Southwest  Level Estimated
Sat 06:59:00 PM 40.7288 -73.4134 217° Southwest  Level Estimated
Sat 07:00:00 PM 40.7288 -73.4134 217° Southwest  Level Estimated
Sat 07:01:00 PM 40.7288 -73.4134 217° Southwest  Level Estimated
Sat 07:02:00 PM 40.7288 -73.4134 217° Southwest  Level Estimated
Sat 07:03:00 PM 40.7288 -73.4134 217° Southwest  Level Estimated
Sat 07:04:00 PM 40.7288 -73.4134 217° Southwest  Level Estimated

Login

Don't have an account? Register now (free) for customized features, flight alerts, and more!